createdAt,value
2019-03-20T00:00:34.876Z,0.85
2019-03-20T00:03:04.042Z,0.80
2019-03-20T00:05:33.374Z,0.70
2019-03-20T00:08:02.387Z,0.68
2019-03-20T00:10:31.378Z,0.88
2019-03-20T00:13:00.324Z,0.58
2019-03-20T00:15:29.338Z,0.77
2019-03-20T00:17:58.507Z,0.82
2019-03-20T00:20:27.453Z,0.78
2019-03-20T00:22:56.330Z,0.85
2019-03-20T00:25:25.207Z,0.78
2019-03-20T00:27:54.167Z,0.60
2019-03-20T00:30:23.156Z,0.74
2019-03-20T00:32:52.068Z,0.82
2019-03-20T00:35:21.131Z,0.79
2019-03-20T00:37:50.134Z,0.78
2019-03-20T00:40:19.290Z,0.75
2019-03-20T00:42:48.205Z,0.74
2019-03-20T00:45:17.190Z,0.71
2019-03-20T00:47:48.383Z,0.84
2019-03-20T00:50:17.488Z,0.90
2019-03-20T00:52:46.457Z,0.87
2019-03-20T00:55:16.248Z,0.86
2019-03-20T00:57:45.270Z,0.84
2019-03-20T01:00:16.379Z,0.92
2019-03-20T01:02:45.322Z,0.93
2019-03-20T01:15:47.194Z,1.03
2019-03-20T01:18:16.168Z,1.05
2019-03-20T01:20:45.114Z,1.01
2019-03-20T01:23:14.185Z,1.08
2019-03-20T01:25:43.022Z,1.11
2019-03-20T01:28:11.954Z,1.14
2019-03-20T01:30:41.601Z,1.10
2019-03-20T01:33:11.365Z,1.05
2019-03-20T01:35:40.351Z,1.09
2019-03-20T01:38:09.265Z,1.06
2019-03-20T01:40:40.303Z,1.10
2019-03-20T01:43:09.339Z,1.13
2019-03-20T01:45:38.396Z,1.11
2019-03-20T01:48:11.287Z,1.13
2019-03-20T01:50:40.635Z,1.13
2019-03-20T01:53:09.565Z,1.07
2019-03-20T01:55:38.404Z,1.12
2019-03-20T01:58:07.321Z,1.06
2019-03-20T02:00:36.450Z,1.10
2019-03-20T02:03:05.457Z,1.11
2019-03-20T02:05:36.233Z,1.07
2019-03-20T02:08:05.080Z,1.05
2019-03-20T02:10:33.947Z,1.16
2019-03-20T02:13:02.780Z,1.09
2019-03-20T02:15:39.114Z,1.12
2019-03-20T02:18:04.836Z,1.11
2019-03-20T02:20:33.702Z,1.17
2019-03-20T02:23:02.924Z,1.11
2019-03-20T02:25:32.512Z,1.03
2019-03-20T02:28:01.405Z,0.99
2019-03-20T02:30:30.241Z,1.04
2019-03-20T02:32:59.216Z,1.03
2019-03-20T02:35:28.068Z,0.99
2019-03-20T02:37:56.967Z,0.96
2019-03-20T02:40:25.884Z,1.02
2019-03-20T02:42:54.674Z,1.02
2019-03-20T02:45:23.556Z,0.98
2019-03-20T02:47:52.441Z,1.06
2019-03-20T02:50:21.305Z,1.10
2019-03-20T02:52:50.223Z,1.02
2019-03-20T02:55:19.182Z,0.95
2019-03-20T02:57:47.999Z,0.97
2019-03-20T03:00:17.018Z,0.92
2019-03-20T03:02:46.001Z,0.96
2019-03-20T03:05:15.386Z,0.94
2019-03-20T03:07:44.349Z,0.92
2019-03-20T03:10:16.627Z,0.91
2019-03-20T03:12:45.214Z,0.88
2019-03-20T03:15:14.667Z,0.91
2019-03-20T03:17:44.831Z,0.84
2019-03-20T03:20:13.948Z,0.93
2019-03-20T03:22:42.955Z,0.90
2019-03-20T03:25:12.141Z,0.87
2019-03-20T03:27:41.125Z,1.02
2019-03-20T03:30:10.338Z,0.91
2019-03-20T03:32:39.168Z,0.94
2019-03-20T03:35:16.050Z,0.94
2019-03-20T03:37:41.519Z,0.95
2019-03-20T03:40:10.726Z,0.80
2019-03-20T03:42:39.810Z,0.83
2019-03-20T03:45:10.310Z,0.88
2019-03-20T03:47:39.218Z,0.84
2019-03-20T03:50:08.384Z,0.63
2019-03-20T03:52:37.319Z,0.75
2019-03-20T03:55:06.564Z,0.84
2019-03-20T03:57:35.741Z,0.89
2019-03-20T04:00:05.321Z,0.93
2019-03-20T04:02:34.193Z,0.94
2019-03-20T04:05:06.096Z,0.85
2019-03-20T04:07:35.199Z,0.86
2019-03-20T04:10:04.387Z,0.78
2019-03-20T04:12:33.722Z,0.90
2019-03-20T04:15:02.672Z,0.91
2019-03-20T04:17:31.654Z,0.96
2019-03-20T04:20:00.586Z,0.91
2019-03-20T04:22:29.490Z,0.90
2019-03-20T04:24:58.527Z,0.90
2019-03-20T04:27:27.561Z,0.82
2019-03-20T04:29:56.581Z,0.83
2019-03-20T04:32:28.892Z,0.92
2019-03-20T04:35:08.197Z,0.97
2019-03-20T04:37:42.759Z,0.96
2019-03-20T04:40:11.747Z,0.95
2019-03-20T04:42:40.729Z,0.88
2019-03-20T04:45:12.529Z,0.81
2019-03-20T04:47:41.248Z,0.91
2019-03-20T04:50:10.612Z,0.90
2019-03-20T04:52:39.538Z,0.95
2019-03-20T04:55:08.543Z,0.95
2019-03-20T04:57:37.458Z,0.97
2019-03-20T05:00:08.092Z,0.98
2019-03-20T05:02:37.016Z,0.93
2019-03-20T05:05:06.215Z,0.91
2019-03-20T05:07:35.090Z,0.92
2019-03-20T05:10:04.277Z,0.91
2019-03-20T05:12:33.175Z,0.94
2019-03-20T05:15:02.510Z,0.88
2019-03-20T05:17:31.483Z,0.84
2019-03-20T05:20:00.366Z,0.89
2019-03-20T05:22:31.979Z,0.83
2019-03-20T05:25:00.997Z,0.90
2019-03-20T05:27:29.912Z,0.98
2019-03-20T05:29:58.786Z,0.95
2019-03-20T05:32:27.637Z,0.99
2019-03-20T05:34:56.540Z,1.05
2019-03-20T05:37:25.389Z,0.99
2019-03-20T05:40:17.506Z,0.98
2019-03-20T05:42:46.482Z,1.00
2019-03-20T05:45:15.420Z,1.03
2019-03-20T05:47:44.446Z,1.07
2019-03-20T05:50:13.653Z,1.16
2019-03-20T05:52:42.725Z,1.17
2019-03-20T05:55:15.322Z,1.10
2019-03-20T05:57:44.368Z,1.19
2019-03-20T06:00:14.454Z,1.15
2019-03-20T06:02:43.407Z,1.15
2019-03-20T06:05:12.586Z,1.28
2019-03-20T06:07:41.747Z,1.34
2019-03-20T06:10:11.935Z,1.42
2019-03-20T06:12:40.855Z,1.36
2019-03-20T06:15:10.185Z,1.52
2019-03-20T06:17:39.083Z,1.59
2019-03-20T06:20:08.366Z,1.63
2019-03-20T06:22:37.253Z,1.71
2019-03-20T06:25:06.446Z,1.76
2019-03-20T06:27:35.475Z,1.76
2019-03-20T06:30:05.352Z,1.87
2019-03-20T06:32:34.166Z,1.92
2019-03-20T06:35:03.489Z,2.01
2019-03-20T06:37:33.008Z,2.05
2019-03-20T06:40:02.036Z,2.17
2019-03-20T06:42:30.901Z,2.29
2019-03-20T06:44:59.796Z,2.41
2019-03-20T06:47:28.990Z,2.55
2019-03-20T06:49:58.113Z,2.63
2019-03-20T06:52:32.053Z,2.74
2019-03-20T06:55:01.545Z,2.90
2019-03-20T06:57:30.459Z,3.11
2019-03-20T07:00:42.076Z,3.29
2019-03-20T07:03:14.888Z,3.49
2019-03-20T07:06:10.895Z,3.75
2019-03-20T07:08:47.106Z,3.92
2019-03-20T07:11:15.871Z,3.94
2019-03-20T07:13:44.864Z,4.01
2019-03-20T07:16:15.253Z,4.08
2019-03-20T07:18:44.107Z,4.24
2019-03-20T07:21:13.099Z,4.36
2019-03-20T07:23:42.029Z,4.56
2019-03-20T07:26:10.912Z,4.69
2019-03-20T07:28:39.760Z,4.87
2019-03-20T07:31:15.095Z,4.76
2019-03-20T07:33:39.225Z,5.08
2019-03-20T07:36:08.070Z,5.13
2019-03-20T07:38:36.919Z,5.41
2019-03-20T07:41:05.935Z,5.48
2019-03-20T07:43:37.887Z,5.48
2019-03-20T07:46:07.119Z,5.51
2019-03-20T07:48:35.992Z,5.54
2019-03-20T07:51:05.327Z,5.76
2019-03-20T07:53:34.170Z,5.75
2019-03-20T07:56:03.067Z,5.92
2019-03-20T07:58:31.922Z,5.95
2019-03-20T08:01:00.778Z,5.99
2019-03-20T08:03:29.656Z,6.01
2019-03-20T08:05:58.645Z,6.30
2019-03-20T08:08:27.504Z,6.32
2019-03-20T08:10:56.361Z,6.43
2019-03-20T08:13:25.197Z,6.56
2019-03-20T08:15:54.041Z,6.59
2019-03-20T08:18:23.145Z,6.64
2019-03-20T08:20:52.009Z,6.61
2019-03-20T08:23:20.846Z,6.94
2019-03-20T08:25:49.768Z,6.75
2019-03-20T08:28:18.631Z,6.73
2019-03-20T08:30:47.519Z,6.68
2019-03-20T08:33:16.473Z,6.71
2019-03-20T08:35:45.329Z,6.72
2019-03-20T08:38:18.697Z,6.69
2019-03-20T08:40:47.135Z,6.79
2019-03-20T08:43:16.129Z,6.79
2019-03-20T08:45:45.101Z,6.79
2019-03-20T08:48:14.012Z,6.85
2019-03-20T08:50:43.045Z,6.83
2019-03-20T08:53:11.928Z,6.85
2019-03-20T08:55:40.132Z,6.90
2019-03-20T08:58:09.012Z,7.01
2019-03-20T09:00:38.027Z,6.91
2019-03-20T09:03:06.964Z,7.01
2019-03-20T09:05:35.889Z,6.95
2019-03-20T09:08:04.885Z,7.04
2019-03-20T09:10:33.891Z,7.15
2019-03-20T09:13:02.851Z,7.19
2019-03-20T09:15:31.673Z,7.25
2019-03-20T09:18:00.753Z,7.28
2019-03-20T09:20:29.704Z,7.34
2019-03-20T09:22:58.555Z,7.39
2019-03-20T09:25:27.658Z,7.45
2019-03-20T09:27:56.652Z,7.50
2019-03-20T09:30:25.645Z,7.47
2019-03-20T09:32:55.902Z,7.62
2019-03-20T09:35:24.987Z,7.54
2019-03-20T09:37:53.896Z,7.54
2019-03-20T09:40:23.785Z,7.68
2019-03-20T09:42:53.111Z,7.78
2019-03-20T09:45:22.241Z,7.88
2019-03-20T09:47:51.194Z,7.84
2019-03-20T09:50:20.305Z,8.02
2019-03-20T09:52:50.160Z,8.03
2019-03-20T09:55:19.109Z,8.06
2019-03-20T09:57:48.026Z,8.14
2019-03-20T10:00:18.874Z,8.26
2019-03-20T10:02:47.781Z,8.02
2019-03-20T10:05:17.053Z,8.16
2019-03-20T10:07:46.331Z,8.22
2019-03-20T10:10:19.807Z,8.19
2019-03-20T10:12:48.898Z,8.17
2019-03-20T10:15:18.259Z,8.23
2019-03-20T10:17:47.249Z,8.23
2019-03-20T10:20:17.700Z,8.29
2019-03-20T10:22:46.680Z,8.32
2019-03-20T10:25:15.934Z,8.35
2019-03-20T10:27:44.960Z,8.37
2019-03-20T10:30:20.905Z,8.50
2019-03-20T10:32:49.746Z,8.59
2019-03-20T10:35:19.190Z,8.72
2019-03-20T10:37:48.173Z,8.74
2019-03-20T10:40:18.776Z,8.69
2019-03-20T10:42:47.729Z,8.75
2019-03-20T10:45:16.691Z,8.69
2019-03-20T10:47:45.687Z,8.65
2019-03-20T10:50:16.543Z,8.63
2019-03-20T10:52:45.496Z,8.65
2019-03-20T10:55:14.496Z,8.62
2019-03-20T10:57:43.546Z,8.69
2019-03-20T11:00:19.551Z,8.67
2019-03-20T11:02:48.458Z,8.76
2019-03-20T11:05:17.866Z,8.69
2019-03-20T11:07:46.925Z,8.71
2019-03-20T11:10:17.759Z,8.76
2019-03-20T11:12:46.718Z,8.71
2019-03-20T11:15:16.004Z,8.73
2019-03-20T11:17:44.947Z,8.74
2019-03-20T11:20:15.298Z,8.77
2019-03-20T11:22:44.281Z,8.73
2019-03-20T11:25:14.663Z,8.92
2019-03-20T11:27:43.560Z,8.93
2019-03-20T11:30:18.489Z,8.84
2019-03-20T11:32:47.454Z,8.90
2019-03-20T11:35:16.358Z,8.85
2019-03-20T11:37:45.328Z,8.86
2019-03-20T11:40:17.330Z,9.02
2019-03-20T11:42:46.201Z,9.04
2019-03-20T11:45:15.182Z,9.00
2019-03-20T11:47:44.171Z,9.02
2019-03-20T11:50:15.693Z,9.06
2019-03-20T11:52:44.593Z,9.06
2019-03-20T11:55:13.753Z,9.07
2019-03-20T11:57:42.751Z,9.01
2019-03-20T12:00:13.900Z,9.11
2019-03-20T12:02:43.079Z,9.11
2019-03-20T12:05:12.882Z,9.13
2019-03-20T12:07:41.698Z,9.18
2019-03-20T12:10:13.616Z,9.11
2019-03-20T12:12:42.727Z,9.16
2019-03-20T12:15:11.723Z,9.19
2019-03-20T12:17:40.885Z,9.16
2019-03-20T12:20:15.005Z,9.16
2019-03-20T12:22:44.238Z,9.21
2019-03-20T12:25:15.788Z,9.17
2019-03-20T12:27:45.002Z,9.21
2019-03-20T12:30:16.440Z,9.21
2019-03-20T12:32:45.402Z,9.21
2019-03-20T12:35:15.010Z,9.25
2019-03-20T12:37:44.103Z,9.21
2019-03-20T12:40:21.262Z,9.22
2019-03-20T12:42:50.709Z,9.22
2019-03-20T12:45:20.890Z,9.20
2019-03-20T12:47:49.818Z,9.22
2019-03-20T12:50:18.907Z,9.24
2019-03-20T12:52:47.791Z,9.15
2019-03-20T12:55:16.897Z,9.13
2019-03-20T12:57:45.874Z,9.16
2019-03-20T13:00:16.775Z,9.23
2019-03-20T13:02:45.827Z,9.21
2019-03-20T13:05:15.289Z,9.26
2019-03-20T13:07:44.431Z,9.29
2019-03-20T13:10:15.332Z,9.33
2019-03-20T13:12:44.327Z,9.35
2019-03-20T13:15:18.639Z,9.36
2019-03-20T13:17:48.638Z,9.33
2019-03-20T13:20:18.144Z,9.37
2019-03-20T13:22:55.575Z,9.37
2019-03-20T13:25:24.576Z,9.40
2019-03-20T13:27:53.561Z,9.39
2019-03-20T13:30:28.827Z,9.40
2019-03-20T13:32:57.759Z,9.42
2019-03-20T13:35:45.914Z,9.41
2019-03-20T13:38:14.905Z,9.44
2019-03-20T13:40:43.898Z,9.43
2019-03-20T13:43:16.601Z,9.48
2019-03-20T13:45:45.507Z,9.40
2019-03-20T13:48:14.490Z,9.43
2019-03-20T13:50:43.409Z,9.40
2019-03-20T13:53:12.497Z,9.40
2019-03-20T13:55:41.408Z,9.45
2019-03-20T13:58:10.375Z,9.44
2019-03-20T14:00:39.333Z,9.47
2019-03-20T14:03:08.745Z,9.43
2019-03-20T14:05:37.955Z,9.45
2019-03-20T14:08:06.952Z,9.42
2019-03-20T14:10:49.294Z,9.45
2019-03-20T14:13:06.565Z,9.40
2019-03-20T14:15:35.578Z,9.39
2019-03-20T14:18:04.743Z,9.40
2019-03-20T14:20:33.759Z,9.41
2019-03-20T14:23:02.735Z,9.41
2019-03-20T14:25:31.757Z,9.41
2019-03-20T14:28:00.616Z,9.38
2019-03-20T14:30:29.539Z,9.38
2019-03-20T14:32:58.583Z,9.42
2019-03-20T14:35:27.490Z,9.40
2019-03-20T14:37:56.388Z,9.41
2019-03-20T14:40:35.367Z,9.42
2019-03-20T14:42:59.379Z,9.44
2019-03-20T14:45:28.370Z,9.43
2019-03-20T14:47:57.367Z,9.33
2019-03-20T14:50:26.261Z,9.44
2019-03-20T14:52:55.259Z,9.40
2019-03-20T14:55:24.243Z,9.41
2019-03-20T14:57:53.123Z,9.42
2019-03-20T15:00:23.431Z,9.42
2019-03-20T15:02:52.359Z,9.39
2019-03-20T15:05:22.936Z,9.37
2019-03-20T15:07:51.847Z,9.40
2019-03-20T15:10:21.508Z,9.39
2019-03-20T15:12:50.556Z,9.38
2019-03-20T15:15:25.100Z,9.40
2019-03-20T15:17:53.996Z,9.40
2019-03-20T15:20:22.960Z,9.35
2019-03-20T15:22:51.878Z,9.38
2019-03-20T15:25:21.115Z,9.36
2019-03-20T15:27:50.066Z,9.34
2019-03-20T15:30:19.070Z,9.34
2019-03-20T15:32:47.950Z,9.35
2019-03-20T15:35:16.824Z,9.36
2019-03-20T15:37:45.627Z,9.35
2019-03-20T15:40:15.729Z,9.34
2019-03-20T15:42:44.823Z,9.38
2019-03-20T15:45:14.635Z,9.38
2019-03-20T15:47:43.766Z,9.38
2019-03-20T15:50:13.948Z,9.39
2019-03-20T15:52:42.900Z,9.40
2019-03-20T15:55:14.173Z,9.42
2019-03-20T15:57:43.091Z,9.44
2019-03-20T16:00:15.036Z,9.41
2019-03-20T16:02:43.941Z,9.43
2019-03-20T16:05:13.286Z,9.39
2019-03-20T16:07:42.401Z,9.40
2019-03-20T16:10:14.053Z,9.40
2019-03-20T16:12:43.028Z,9.44
2019-03-20T16:15:13.505Z,9.45
2019-03-20T16:17:42.389Z,9.44
2019-03-20T16:20:11.386Z,9.42
2019-03-20T16:22:40.442Z,9.47
2019-03-20T16:25:10.543Z,9.41
2019-03-20T16:27:39.375Z,9.45
2019-03-20T16:30:11.356Z,9.43
2019-03-20T16:32:40.215Z,9.46
2019-03-20T16:35:09.408Z,9.44
2019-03-20T16:37:38.291Z,9.45
2019-03-20T16:40:09.274Z,9.44
2019-03-20T16:42:38.118Z,9.43
2019-03-20T16:45:08.245Z,9.42
2019-03-20T16:47:37.125Z,9.42
2019-03-20T16:50:06.524Z,9.41
2019-03-20T16:52:35.358Z,9.43
2019-03-20T16:55:06.843Z,9.43
2019-03-20T16:57:35.720Z,9.38
2019-03-20T17:00:05.817Z,9.36
2019-03-20T17:02:34.707Z,9.35
2019-03-20T17:05:03.702Z,9.29
2019-03-20T17:07:39.666Z,9.25
2019-03-20T17:10:12.453Z,9.22
2019-03-20T17:12:41.368Z,9.20
2019-03-20T17:15:14.617Z,9.18
2019-03-20T17:17:43.524Z,9.16
2019-03-20T17:24:13.222Z,9.13
2019-03-20T17:27:24.663Z,9.10
2019-03-20T17:30:50.452Z,9.08
2019-03-20T17:33:52.579Z,9.08
2019-03-20T17:36:25.062Z,9.04
2019-03-20T17:45:59.666Z,9.05
2019-03-20T17:48:29.178Z,9.06
2019-03-20T17:51:10.524Z,9.05
2019-03-20T17:53:56.276Z,9.06
2019-03-20T17:56:28.548Z,9.06
2019-03-20T18:02:23.899Z,9.10
2019-03-20T18:04:53.397Z,9.09
2019-03-20T18:07:28.265Z,9.11
2019-03-20T18:10:03.076Z,9.12
2019-03-20T18:16:25.333Z,9.14
2019-03-20T18:18:44.778Z,9.13
2019-03-20T18:24:11.971Z,9.13
2019-03-20T18:27:00.029Z,9.13
2019-03-20T18:30:05.061Z,9.14
2019-03-20T18:32:37.720Z,9.16
2019-03-20T18:35:08.477Z,9.15
2019-03-20T18:37:37.959Z,9.17
2019-03-20T18:40:09.264Z,9.17
2019-03-20T18:42:38.498Z,9.18
2019-03-20T18:45:08.212Z,9.16
2019-03-20T18:47:38.447Z,9.20
2019-03-20T18:50:07.499Z,9.19
2019-03-20T18:52:36.686Z,9.21
2019-03-20T18:55:14.812Z,9.23
2019-03-20T18:57:46.566Z,9.24
2019-03-20T19:00:25.423Z,9.19
2019-03-20T19:02:55.360Z,9.20
2019-03-20T19:05:58.653Z,9.20
2019-03-20T19:28:57.283Z,9.13
2019-03-20T19:31:28.844Z,9.24
2019-03-20T19:33:59.580Z,9.22
2019-03-20T19:36:29.529Z,9.21
2019-03-20T19:39:00.743Z,9.22
2019-03-20T19:41:30.762Z,9.22
2019-03-20T19:44:00.770Z,9.22
2019-03-20T19:46:33.430Z,9.22
2019-03-20T19:49:02.449Z,9.23
2019-03-20T19:51:31.612Z,9.22
2019-03-20T19:54:00.587Z,9.23
2019-03-20T19:56:29.916Z,9.23
2019-03-20T19:58:58.848Z,9.22
2019-03-20T20:01:31.133Z,9.21
2019-03-20T20:04:00.185Z,9.21
2019-03-20T20:06:30.358Z,9.24
2019-03-20T20:09:00.388Z,9.24
2019-03-20T20:11:29.235Z,9.23
2019-03-20T20:13:58.347Z,9.23
2019-03-20T20:16:27.492Z,9.22
2019-03-20T20:18:56.765Z,9.25
2019-03-20T20:21:25.972Z,9.23
2019-03-20T20:23:55.309Z,9.26
2019-03-20T20:26:24.299Z,9.22
2019-03-20T20:28:53.130Z,9.24
2019-03-20T20:31:24.532Z,9.22
2019-03-20T20:33:53.646Z,9.23
2019-03-20T20:36:22.472Z,9.24
2019-03-20T20:38:51.661Z,9.23
2019-03-20T20:41:21.166Z,9.22
2019-03-20T20:43:50.069Z,9.22
2019-03-20T20:46:18.873Z,9.22
2019-03-20T20:48:49.076Z,9.21
2019-03-20T20:51:18.093Z,9.22
2019-03-20T20:53:46.898Z,9.21
2019-03-20T20:56:16.260Z,9.20
2019-03-20T20:58:45.628Z,9.18
2019-03-20T21:01:15.286Z,9.18
2019-03-20T21:07:11.943Z,9.17
2019-03-20T21:09:40.787Z,9.18
2019-03-20T21:12:13.196Z,9.18
2019-03-20T21:14:42.631Z,9.17
2019-03-20T21:17:16.510Z,9.19
2019-03-20T21:19:48.012Z,9.21
2019-03-20T21:23:04.564Z,9.21
2019-03-20T21:25:35.702Z,9.20
2019-03-20T21:28:42.375Z,9.18
2019-03-20T21:31:20.973Z,9.18
2019-03-20T21:34:30.985Z,9.17
2019-03-20T21:37:35.667Z,9.17
2019-03-20T21:40:06.202Z,9.17
2019-03-20T21:43:18.674Z,9.14
2019-03-20T21:46:40.508Z,9.15
2019-03-20T21:49:10.011Z,9.13
2019-03-20T21:51:39.375Z,9.13
2019-03-20T21:54:49.734Z,9.15
2019-03-20T21:57:47.626Z,9.15
2019-03-20T22:01:25.180Z,9.14
2019-03-20T22:03:54.580Z,9.14
2019-03-20T22:06:59.085Z,9.13
2019-03-20T22:10:05.742Z,9.15
2019-03-20T22:12:59.265Z,9.15
2019-03-20T22:15:51.158Z,9.15
2019-03-20T22:19:04.224Z,9.13
2019-03-20T22:22:01.623Z,9.13
2019-03-20T22:24:52.433Z,9.13
2019-03-20T22:27:31.581Z,9.13
2019-03-20T22:30:01.119Z,9.14
2019-03-20T22:33:17.427Z,9.14
2019-03-20T22:35:53.060Z,9.12
2019-03-20T22:39:01.660Z,9.13
2019-03-20T22:41:57.482Z,9.13
2019-03-20T22:44:29.798Z,9.12
2019-03-20T22:48:07.037Z,9.14
2019-03-20T22:51:15.730Z,9.13
2019-03-20T22:54:08.598Z,9.14
2019-03-20T22:57:24.221Z,9.13
2019-03-20T22:59:53.885Z,9.16
2019-03-20T23:02:51.088Z,9.16
2019-03-20T23:05:20.691Z,9.15
2019-03-20T23:07:50.511Z,9.14
2019-03-20T23:10:20.047Z,9.15
2019-03-20T23:12:49.425Z,9.14
2019-03-20T23:15:19.803Z,9.16
2019-03-20T23:17:50.791Z,9.15
2019-03-20T23:20:23.580Z,9.14
2019-03-20T23:22:54.365Z,9.15
2019-03-20T23:25:28.555Z,9.15
2019-03-20T23:27:57.908Z,9.17
2019-03-20T23:30:27.807Z,9.13
2019-03-20T23:32:57.220Z,9.15
2019-03-20T23:35:26.684Z,9.15
2019-03-20T23:37:56.085Z,9.15
2019-03-20T23:40:25.647Z,9.15
2019-03-20T23:42:55.279Z,9.14
2019-03-20T23:45:25.372Z,9.14
2019-03-20T23:48:01.071Z,9.14
2019-03-20T23:50:30.591Z,9.18
2019-03-20T23:53:00.287Z,9.13
2019-03-20T23:55:29.844Z,9.15
2019-03-20T23:57:59.619Z,9.14
